Time;durP1;ratioP1;P1;durP2;ratioP2;P2;SDS_P1;SDS_P2;PMS_P1;PMS_P2;Temp;Humidity;BMP_temperature;BMP_pressure;BME280_temperature;BME280_humidity;BME280_pressure;Samples;Min_cycle;Max_cycle;Signal;HPM_P1;HPM_P2
2024/03/26 00:00:06;;;;;;;2.80;1.95;;;;;;;;;;5098647;28;20394;-81
2024/03/26 00:02:32;;;;;;;2.05;1.70;;;;;;;;;;5098593;28;20366;-81
2024/03/26 00:04:58;;;;;;;1.88;1.65;;;;;;;;;;5098534;28;20385;-80
2024/03/26 00:07:24;;;;;;;2.13;1.60;;;;;;;;;;5098497;28;20366;-80
2024/03/26 00:09:50;;;;;;;2.08;1.60;;;;;;;;;;5098064;28;20477;-81
2024/03/26 00:12:16;;;;;;;2.60;1.85;;;;;;;;;;5097910;28;20371;-81
2024/03/26 00:14:42;;;;;;;2.88;2.03;;;;;;;;;;5098156;28;20758;-81
2024/03/26 00:17:08;;;;;;;4.32;2.08;;;;;;;;;;5097078;28;20370;-81
2024/03/26 00:19:34;;;;;;;2.45;1.95;;;;;;;;;;5098468;28;20461;-80
2024/03/26 00:22:00;;;;;;;3.30;2.03;;;;;;;;;;5097729;28;20440;-81
2024/03/26 00:24:26;;;;;;;2.10;1.73;;;;;;;;;;5098275;28;20768;-81
2024/03/26 00:26:52;;;;;;;2.70;1.80;;;;;;;;;;5098092;28;20374;-81
2024/03/26 00:29:18;;;;;;;2.80;2.25;;;;;;;;;;5097782;28;20385;-81
2024/03/26 00:31:44;;;;;;;4.40;2.57;;;;;;;;;;5097553;28;20896;-81
2024/03/26 00:34:10;;;;;;;3.58;2.25;;;;;;;;;;5097761;28;20481;-81
2024/03/26 00:36:36;;;;;;;3.38;2.08;;;;;;;;;;5097662;28;20385;-81
2024/03/26 00:39:03;;;;;;;3.05;1.90;;;;;;;;;;5096586;28;20833;-81
2024/03/26 00:41:29;;;;;;;2.13;1.90;;;;;;;;;;5097600;28;20382;-81
2024/03/26 00:43:55;;;;;;;2.03;1.75;;;;;;;;;;5097129;28;20489;-81
2024/03/26 00:46:21;;;;;;;3.47;1.98;;;;;;;;;;5097561;28;20386;-81
2024/03/26 00:48:47;;;;;;;4.20;2.07;;;;;;;;;;5097152;28;20446;-81
2024/03/26 00:51:13;;;;;;;2.50;1.92;;;;;;;;;;5097197;28;20405;-81
2024/03/26 00:53:39;;;;;;;3.78;2.08;;;;;;;;;;5096525;28;20993;-81
2024/03/26 00:56:05;;;;;;;1.83;1.60;;;;;;;;;;5098384;28;20400;-81
2024/03/26 00:58:32;;;;;;;1.92;1.73;;;;;;;;;;5096794;28;20410;-81
2024/03/26 01:00:58;;;;;;;1.67;1.50;;;;;;;;;;5096955;28;21072;-81
2024/03/26 01:03:24;;;;;;;2.20;2.00;;;;;;;;;;5097465;28;20382;-81
2024/03/26 01:05:57;;;;;;;2.17;1.98;;;;;;;;;;5097109;28;20421;-81
2024/03/26 01:08:23;;;;;;;2.42;1.85;;;;;;;;;;5097961;28;20708;-81
2024/03/26 01:10:49;;;;;;;2.70;1.80;;;;;;;;;;5097377;28;20564;-81
2024/03/26 01:13:15;;;;;;;2.17;1.60;;;;;;;;;;5097292;28;20425;-81
2024/03/26 01:15:41;;;;;;;2.20;1.73;;;;;;;;;;5096311;28;20493;-81
2024/03/26 01:18:07;;;;;;;2.58;1.77;;;;;;;;;;5096827;28;20899;-81
2024/03/26 01:20:33;;;;;;;2.53;1.90;;;;;;;;;;5096706;28;20382;-81
2024/03/26 01:22:59;;;;;;;3.00;1.88;;;;;;;;;;5096807;28;20374;-81
2024/03/26 01:25:26;;;;;;;2.30;1.80;;;;;;;;;;5096620;28;20381;-81
2024/03/26 01:27:53;;;;;;;3.08;2.10;;;;;;;;;;5096379;28;20386;-81
2024/03/26 01:30:19;;;;;;;1.93;1.73;;;;;;;;;;5096635;28;20447;-81
2024/03/26 01:32:45;;;;;;;2.47;1.77;;;;;;;;;;5096031;28;20492;-81
2024/03/26 01:35:11;;;;;;;2.60;1.73;;;;;;;;;;5096470;28;20455;-81
2024/03/26 01:37:37;;;;;;;2.60;2.05;;;;;;;;;;5097140;28;20409;-80
2024/03/26 01:40:04;;;;;;;2.47;2.00;;;;;;;;;;5096317;28;20378;-80
2024/03/26 01:42:30;;;;;;;2.50;1.90;;;;;;;;;;5096567;28;20844;-81
2024/03/26 01:44:55;;;;;;;3.38;2.17;;;;;;;;;;5097028;28;20410;-81
2024/03/26 01:47:21;;;;;;;2.53;1.90;;;;;;;;;;5096397;28;20380;-81
2024/03/26 01:49:48;;;;;;;2.08;1.70;;;;;;;;;;5096406;28;20370;-81
2024/03/26 01:52:14;;;;;;;2.65;1.88;;;;;;;;;;5096937;28;20782;-81
2024/03/26 01:54:43;;;;;;;2.28;2.00;;;;;;;;;;5096791;28;20378;-81
2024/03/26 01:57:10;;;;;;;2.15;1.90;;;;;;;;;;5100701;28;20382;-81
2024/03/26 01:59:37;;;;;;;3.03;1.97;;;;;;;;;;5100218;28;20425;-81
2024/03/26 02:02:03;;;;;;;2.42;1.90;;;;;;;;;;5101464;28;20468;-80
2024/03/26 02:04:29;;;;;;;2.22;1.80;;;;;;;;;;5100676;28;20383;-81
2024/03/26 02:06:55;;;;;;;2.38;2.00;;;;;;;;;;5100460;28;20373;-80
2024/03/26 02:09:21;;;;;;;2.70;1.98;;;;;;;;;;5100217;28;20389;-81
2024/03/26 02:11:48;;;;;;;2.83;1.90;;;;;;;;;;5100564;28;20374;-81
2024/03/26 02:14:15;;;;;;;3.28;1.90;;;;;;;;;;5100021;28;20404;-81
2024/03/26 02:16:41;;;;;;;2.60;2.00;;;;;;;;;;5097454;28;20438;-81
2024/03/26 02:19:08;;;;;;;3.33;2.10;;;;;;;;;;5099821;28;20462;-80
2024/03/26 02:21:34;;;;;;;2.15;1.92;;;;;;;;;;5099066;28;20755;-81
2024/03/26 02:24:00;;;;;;;2.35;2.15;;;;;;;;;;5100229;28;20370;-81
2024/03/26 02:26:26;;;;;;;3.05;2.20;;;;;;;;;;5099869;28;20435;-81
2024/03/26 02:28:55;;;;;;;1.95;1.60;;;;;;;;;;5099429;28;20727;-81
2024/03/26 02:31:21;;;;;;;1.83;1.52;;;;;;;;;;5100118;28;20401;-81
2024/03/26 02:33:47;;;;;;;2.10;1.90;;;;;;;;;;5099770;28;20388;-81
2024/03/26 02:36:13;;;;;;;1.95;1.70;;;;;;;;;;5100447;28;20422;-81
2024/03/26 02:38:39;;;;;;;2.13;1.63;;;;;;;;;;5099583;28;20410;-81
2024/03/26 02:41:05;;;;;;;2.50;1.45;;;;;;;;;;5100197;28;20382;-81
2024/03/26 02:43:32;;;;;;;1.93;1.57;;;;;;;;;;5099927;28;20426;-81
2024/03/26 02:45:58;;;;;;;3.03;1.70;;;;;;;;;;5099195;28;20374;-81
2024/03/26 02:48:24;;;;;;;2.40;1.90;;;;;;;;;;5099301;28;20904;-81
2024/03/26 02:50:50;;;;;;;3.00;1.80;;;;;;;;;;5099318;28;20371;-81
2024/03/26 02:53:18;;;;;;;2.55;1.70;;;;;;;;;;5099503;28;20423;-81
2024/03/26 02:55:44;;;;;;;2.45;1.70;;;;;;;;;;5099630;28;20381;-81
2024/03/26 02:58:10;;;;;;;2.55;1.70;;;;;;;;;;5100017;28;20763;-81
2024/03/26 03:00:36;;;;;;;1.98;1.80;;;;;;;;;;5100023;28;20400;-81
2024/03/26 03:03:02;;;;;;;2.20;1.60;;;;;;;;;;5099300;28;20790;-81
2024/03/26 03:05:28;;;;;;;2.80;2.05;;;;;;;;;;5081216;28;20769;-81
2024/03/26 03:07:54;;;;;;;2.00;1.80;;;;;;;;;;5098749;28;20474;-80
2024/03/26 03:10:20;;;;;;;1.70;1.60;;;;;;;;;;5081149;28;20394;-80
2024/03/26 03:12:46;;;;;;;1.90;1.70;;;;;;;;;;5099023;28;20397;-81
2024/03/26 03:15:13;;;;;;;2.10;1.70;;;;;;;;;;5099165;28;20386;-81
2024/03/26 03:17:39;;;;;;;3.72;1.75;;;;;;;;;;5098328;28;20895;-81
2024/03/26 03:20:05;;;;;;;2.25;1.60;;;;;;;;;;5098701;28;20374;-81
2024/03/26 03:22:31;;;;;;;2.25;1.55;;;;;;;;;;5099065;28;20370;-81
2024/03/26 03:24:57;;;;;;;2.30;1.60;;;;;;;;;;5098657;28;20410;-80
2024/03/26 03:27:23;;;;;;;2.17;1.50;;;;;;;;;;5098975;28;20390;-81
2024/03/26 03:29:49;;;;;;;3.23;1.80;;;;;;;;;;5098417;28;20489;-80
2024/03/26 03:32:15;;;;;;;2.10;1.77;;;;;;;;;;5098223;28;20413;-81
2024/03/26 03:34:41;;;;;;;2.35;1.92;;;;;;;;;;5097844;28;21045;-80
2024/03/26 03:37:07;;;;;;;3.03;1.93;;;;;;;;;;5098970;28;20401;-80
2024/03/26 03:39:33;;;;;;;3.03;1.90;;;;;;;;;;5098434;28;20487;-80
2024/03/26 03:41:58;;;;;;;2.63;1.90;;;;;;;;;;5098318;28;20747;-80
2024/03/26 03:44:25;;;;;;;1.70;1.47;;;;;;;;;;5098655;28;20507;-81
2024/03/26 03:46:51;;;;;;;1.67;1.58;;;;;;;;;;5098020;28;20469;-80
2024/03/26 03:49:16;;;;;;;2.58;1.90;;;;;;;;;;5098072;28;20414;-81
2024/03/26 03:51:42;;;;;;;2.10;1.60;;;;;;;;;;5098388;28;20431;-80
2024/03/26 03:54:08;;;;;;;2.25;1.70;;;;;;;;;;5098388;28;20709;-81
2024/03/26 03:56:34;;;;;;;2.67;1.95;;;;;;;;;;5097507;28;20443;-80
2024/03/26 03:59:00;;;;;;;2.23;1.70;;;;;;;;;;5097801;28;20420;-81
2024/03/26 04:01:26;;;;;;;2.50;1.63;;;;;;;;;;5097483;28;20370;-80
2024/03/26 04:03:52;;;;;;;1.92;1.77;;;;;;;;;;5097823;28;20401;-81
2024/03/26 04:06:18;;;;;;;2.40;1.87;;;;;;;;;;5098259;28;20385;-80
2024/03/26 04:08:44;;;;;;;2.03;1.83;;;;;;;;;;5098002;28;20433;-80
2024/03/26 04:11:10;;;;;;;4.07;1.95;;;;;;;;;;5097664;28;20386;-80
2024/03/26 04:13:37;;;;;;;2.72;2.10;;;;;;;;;;5079036;28;20398;-80
2024/03/26 04:16:03;;;;;;;3.00;2.10;;;;;;;;;;5097238;28;20382;-81
2024/03/26 04:18:29;;;;;;;2.43;2.00;;;;;;;;;;5097771;28;20410;-80
2024/03/26 04:20:55;;;;;;;3.88;2.03;;;;;;;;;;5098311;28;20381;-81
2024/03/26 04:23:21;;;;;;;2.80;1.90;;;;;;;;;;5098039;28;20717;-80
2024/03/26 04:25:57;;;;;;;2.53;1.70;;;;;;;;;;5097599;28;20386;-80
2024/03/26 04:28:23;;;;;;;2.35;1.67;;;;;;;;;;5097112;28;20429;-80
2024/03/26 04:30:49;;;;;;;1.98;1.77;;;;;;;;;;5098256;28;20473;-81
2024/03/26 04:33:15;;;;;;;2.25;1.88;;;;;;;;;;5097141;28;20425;-81
2024/03/26 04:35:41;;;;;;;2.47;1.70;;;;;;;;;;5097721;28;20374;-81
2024/03/26 04:38:07;;;;;;;2.47;1.90;;;;;;;;;;5097880;28;20413;-81
2024/03/26 04:40:33;;;;;;;2.60;1.70;;;;;;;;;;5097365;28;20476;-81
2024/03/26 04:42:59;;;;;;;2.13;1.92;;;;;;;;;;5095715;28;20394;-81
2024/03/26 04:45:25;;;;;;;2.45;1.83;;;;;;;;;;5096354;28;20374;-80
2024/03/26 04:47:51;;;;;;;2.20;2.00;;;;;;;;;;5096476;28;20386;-80
2024/03/26 04:50:17;;;;;;;2.10;1.90;;;;;;;;;;5078696;28;20386;-81
2024/03/26 04:52:43;;;;;;;2.65;1.73;;;;;;;;;;5096957;28;20471;-81
2024/03/26 04:55:09;;;;;;;4.10;1.90;;;;;;;;;;5096137;28;20378;-80
2024/03/26 04:57:35;;;;;;;1.92;1.73;;;;;;;;;;5096200;28;20389;-81
2024/03/26 05:00:01;;;;;;;2.73;1.73;;;;;;;;;;5096098;28;20401;-80
2024/03/26 05:02:27;;;;;;;2.60;1.67;;;;;;;;;;5077953;28;20370;-80
2024/03/26 05:04:53;;;;;;;1.95;1.77;;;;;;;;;;5096620;28;20390;-81
2024/03/26 05:07:19;;;;;;;4.70;2.07;;;;;;;;;;5096403;28;20455;-80
2024/03/26 05:09:45;;;;;;;2.47;1.85;;;;;;;;;;5096749;28;20740;-81
2024/03/26 05:12:11;;;;;;;2.70;1.90;;;;;;;;;;5096691;28;20417;-80
2024/03/26 05:14:37;;;;;;;2.10;1.70;;;;;;;;;;5096794;28;20484;-81
2024/03/26 05:17:03;;;;;;;2.60;1.90;;;;;;;;;;5096730;28;20386;-81
2024/03/26 05:19:29;;;;;;;2.17;1.77;;;;;;;;;;5096369;28;20406;-81
2024/03/26 05:21:55;;;;;;;2.30;1.70;;;;;;;;;;5096229;28;20374;-81
2024/03/26 05:24:21;;;;;;;1.88;1.60;;;;;;;;;;5096815;28;20374;-81
2024/03/26 05:26:47;;;;;;;2.10;1.90;;;;;;;;;;5096231;28;20424;-81
2024/03/26 05:29:14;;;;;;;2.13;1.80;;;;;;;;;;5096538;28;20386;-81
2024/03/26 05:31:40;;;;;;;2.03;1.83;;;;;;;;;;5094701;28;20466;-80
2024/03/26 05:34:06;;;;;;;2.03;1.80;;;;;;;;;;5096739;28;20394;-81
2024/03/26 05:36:32;;;;;;;2.08;1.88;;;;;;;;;;5096764;28;20382;-81
2024/03/26 05:38:58;;;;;;;2.37;1.80;;;;;;;;;;5095738;28;20398;-80
2024/03/26 05:41:24;;;;;;;2.28;2.08;;;;;;;;;;5108171;28;20372;-80
2024/03/26 05:43:52;;;;;;;2.75;1.90;;;;;;;;;;5116327;28;20853;-81
2024/03/26 05:46:18;;;;;;;2.60;1.88;;;;;;;;;;5116407;28;20383;-80
2024/03/26 05:48:45;;;;;;;1.70;1.60;;;;;;;;;;5115582;28;20380;-81
2024/03/26 05:51:11;;;;;;;2.22;1.90;;;;;;;;;;5115685;28;20429;-80
2024/03/26 05:53:37;;;;;;;3.17;2.08;;;;;;;;;;5116623;28;20380;-81
2024/03/26 05:56:03;;;;;;;2.23;2.03;;;;;;;;;;5116111;28;20464;-81
2024/03/26 05:58:29;;;;;;;2.67;2.17;;;;;;;;;;5115467;28;20430;-81
2024/03/26 06:00:55;;;;;;;2.60;1.90;;;;;;;;;;5116083;28;20361;-80
2024/03/26 06:03:21;;;;;;;2.47;2.10;;;;;;;;;;5116542;28;20387;-80
2024/03/26 06:05:47;;;;;;;2.90;2.30;;;;;;;;;;5116953;28;20430;-81
2024/03/26 06:08:13;;;;;;;2.10;1.80;;;;;;;;;;5116087;28;20768;-81
2024/03/26 06:10:39;;;;;;;2.90;2.30;;;;;;;;;;5117060;28;20380;-81
2024/03/26 06:13:05;;;;;;;2.88;2.22;;;;;;;;;;5116539;28;21057;-81
2024/03/26 06:15:31;;;;;;;4.75;2.10;;;;;;;;;;5096126;28;20381;-81
2024/03/26 06:17:56;;;;;;;3.47;2.13;;;;;;;;;;5094422;28;20402;-81
2024/03/26 06:20:22;;;;;;;3.90;2.30;;;;;;;;;;5095416;28;20844;-81
2024/03/26 06:22:48;;;;;;;3.13;2.30;;;;;;;;;;5096548;28;20384;-81
2024/03/26 06:25:15;;;;;;;2.43;2.20;;;;;;;;;;5095668;28;20383;-81
2024/03/26 06:27:41;;;;;;;6.30;2.65;;;;;;;;;;5095687;28;20464;-81
2024/03/26 06:30:08;;;;;;;2.50;2.30;;;;;;;;;;5095795;28;20416;-81
2024/03/26 06:32:34;;;;;;;3.55;2.20;;;;;;;;;;5094766;28;20406;-81
2024/03/26 06:35:00;;;;;;;4.10;2.50;;;;;;;;;;5094150;28;20370;-81
2024/03/26 06:37:26;;;;;;;3.75;2.30;;;;;;;;;;5094793;28;20400;-81
2024/03/26 06:39:52;;;;;;;3.45;2.30;;;;;;;;;;5077430;28;20386;-81
2024/03/26 06:42:18;;;;;;;2.47;2.00;;;;;;;;;;5095396;28;20418;-81
2024/03/26 06:44:44;;;;;;;2.75;2.40;;;;;;;;;;5099101;28;20412;-81
2024/03/26 06:47:10;;;;;;;3.03;2.20;;;;;;;;;;5099121;28;20378;-81
2024/03/26 06:49:36;;;;;;;2.90;2.60;;;;;;;;;;5099406;28;20469;-81
2024/03/26 06:52:02;;;;;;;2.65;2.35;;;;;;;;;;5099486;28;20421;-81
2024/03/26 06:54:28;;;;;;;4.10;2.47;;;;;;;;;;5099010;28;20430;-81
2024/03/26 06:56:54;;;;;;;2.25;2.05;;;;;;;;;;5098859;28;20386;-81
2024/03/26 06:59:20;;;;;;;3.97;2.20;;;;;;;;;;5098861;28;20402;-81
2024/03/26 07:01:46;;;;;;;4.07;2.20;;;;;;;;;;5097541;28;20476;-81
2024/03/26 07:04:12;;;;;;;2.65;2.13;;;;;;;;;;5098302;28;20371;-81
2024/03/26 07:06:38;;;;;;;2.58;2.20;;;;;;;;;;5099277;28;20460;-81
2024/03/26 07:09:04;;;;;;;2.80;2.25;;;;;;;;;;5098099;28;20374;-81
2024/03/26 07:11:30;;;;;;;2.73;2.40;;;;;;;;;;5099017;28;20382;-81
2024/03/26 07:13:58;;;;;;;3.70;2.30;;;;;;;;;;5097726;28;20910;-81
2024/03/26 07:16:24;;;;;;;2.95;2.45;;;;;;;;;;5097166;28;20374;-80
2024/03/26 07:18:51;;;;;;;2.33;2.13;;;;;;;;;;5098310;28;20410;-81
2024/03/26 07:21:17;;;;;;;3.28;2.72;;;;;;;;;;5097696;28;20370;-81
2024/03/26 07:23:43;;;;;;;2.70;2.30;;;;;;;;;;5097159;28;20720;-81
2024/03/26 07:26:09;;;;;;;2.65;2.45;;;;;;;;;;5097277;28;20763;-81
2024/03/26 07:28:37;;;;;;;3.38;2.30;;;;;;;;;;5096462;28;20382;-81
2024/03/26 07:31:04;;;;;;;2.95;2.35;;;;;;;;;;5096535;28;20377;-81
2024/03/26 07:33:30;;;;;;;3.08;2.25;;;;;;;;;;5097048;28;20378;-81
2024/03/26 07:35:56;;;;;;;2.17;1.92;;;;;;;;;;5097382;28;20389;-81
2024/03/26 07:38:22;;;;;;;2.55;2.35;;;;;;;;;;5097228;28;20398;-81
2024/03/26 07:40:48;;;;;;;3.40;2.50;;;;;;;;;;5097650;28;20808;-81
2024/03/26 07:43:13;;;;;;;3.55;2.70;;;;;;;;;;5098535;28;20382;-81
2024/03/26 07:45:39;;;;;;;3.70;2.55;;;;;;;;;;5098968;28;20878;-81
2024/03/26 07:48:06;;;;;;;3.83;2.67;;;;;;;;;;5098531;28;20386;-82
2024/03/26 07:50:32;;;;;;;2.53;2.33;;;;;;;;;;5098209;28;20386;-81
2024/03/26 07:52:58;;;;;;;2.85;2.40;;;;;;;;;;5098423;28;20374;-81
2024/03/26 07:55:24;;;;;;;4.10;2.50;;;;;;;;;;5098030;28;20424;-81
2024/03/26 07:57:50;;;;;;;4.07;2.38;;;;;;;;;;5097332;28;20409;-81
2024/03/26 08:00:16;;;;;;;2.60;2.30;;;;;;;;;;5097152;28;20374;-80
2024/03/26 08:02:42;;;;;;;3.00;2.33;;;;;;;;;;5097686;28;20374;-81
2024/03/26 08:05:08;;;;;;;2.50;2.27;;;;;;;;;;5097114;28;20463;-81
2024/03/26 08:07:34;;;;;;;3.53;2.60;;;;;;;;;;5097046;28;20370;-81
2024/03/26 08:10:00;;;;;;;2.78;2.40;;;;;;;;;;5097396;28;20385;-81
2024/03/26 08:12:27;;;;;;;3.13;2.67;;;;;;;;;;5096791;28;20904;-81
2024/03/26 08:14:53;;;;;;;4.55;2.90;;;;;;;;;;5096593;28;20381;-81
2024/03/26 08:17:19;;;;;;;5.18;2.50;;;;;;;;;;5094606;28;20417;-81
2024/03/26 08:19:45;;;;;;;2.70;2.50;;;;;;;;;;5096511;28;20429;-81
2024/03/26 08:22:11;;;;;;;4.10;2.65;;;;;;;;;;5097099;28;20786;-81
2024/03/26 08:24:37;;;;;;;4.18;2.70;;;;;;;;;;5096851;28;20412;-81
2024/03/26 08:27:04;;;;;;;4.43;2.65;;;;;;;;;;5097758;28;20409;-81
2024/03/26 08:29:30;;;;;;;3.17;2.87;;;;;;;;;;5097476;28;20374;-81
2024/03/26 08:31:56;;;;;;;2.50;2.30;;;;;;;;;;5097145;28;20406;-81
2024/03/26 08:34:22;;;;;;;3.70;2.47;;;;;;;;;;5096920;28;20404;-81
2024/03/26 08:36:48;;;;;;;3.73;2.50;;;;;;;;;;5096838;28;20385;-81
2024/03/26 08:39:14;;;;;;;3.08;2.30;;;;;;;;;;5096193;28;20413;-81
2024/03/26 08:41:40;;;;;;;3.17;2.40;;;;;;;;;;5096426;28;20382;-81
2024/03/26 08:44:06;;;;;;;3.30;2.50;;;;;;;;;;5096310;28;20374;-81
2024/03/26 08:46:32;;;;;;;3.50;2.67;;;;;;;;;;5095757;28;20369;-81
2024/03/26 08:49:01;;;;;;;3.20;2.67;;;;;;;;;;5096276;28;20378;-81
2024/03/26 08:51:30;;;;;;;3.60;2.70;;;;;;;;;;5096755;28;20402;-81
2024/03/26 08:53:56;;;;;;;3.95;2.42;;;;;;;;;;5096089;28;20455;-81
2024/03/26 08:56:23;;;;;;;6.10;2.60;;;;;;;;;;5095964;28;20886;-81
2024/03/26 08:58:53;;;;;;;3.13;2.20;;;;;;;;;;5096335;28;20444;-81
2024/03/26 09:01:19;;;;;;;5.68;2.30;;;;;;;;;;5096313;28;20463;-82
2024/03/26 09:03:45;;;;;;;3.63;2.20;;;;;;;;;;5097097;28;20379;-81
2024/03/26 09:06:11;;;;;;;2.97;2.13;;;;;;;;;;5095798;28;20378;-82
2024/03/26 09:08:37;;;;;;;2.80;1.95;;;;;;;;;;5096220;28;20455;-82
2024/03/26 09:11:04;;;;;;;3.20;2.03;;;;;;;;;;5096490;28;20432;-81
2024/03/26 09:13:30;;;;;;;3.15;2.25;;;;;;;;;;5096995;28;20386;-81
2024/03/26 09:15:56;;;;;;;3.42;2.40;;;;;;;;;;5096851;28;20415;-81
2024/03/26 09:18:22;;;;;;;3.78;2.33;;;;;;;;;;5096941;28;20405;-81
2024/03/26 09:20:48;;;;;;;3.67;2.10;;;;;;;;;;5096539;28;20381;-81
2024/03/26 09:23:14;;;;;;;2.60;2.33;;;;;;;;;;5097147;28;20739;-81
2024/03/26 09:25:40;;;;;;;3.90;2.22;;;;;;;;;;5096844;28;20370;-81
2024/03/26 09:28:06;;;;;;;3.00;2.30;;;;;;;;;;5096207;28;20882;-82
2024/03/26 09:30:32;;;;;;;2.67;2.35;;;;;;;;;;5096395;28;20394;-82
2024/03/26 09:32:59;;;;;;;3.80;2.40;;;;;;;;;;5095792;28;20415;-81
2024/03/26 09:35:25;;;;;;;2.67;2.38;;;;;;;;;;5096075;28;20374;-82
2024/03/26 09:37:51;;;;;;;4.28;2.45;;;;;;;;;;5094131;28;20771;-82
2024/03/26 09:40:17;;;;;;;4.82;2.60;;;;;;;;;;5096209;28;20363;-82
2024/03/26 09:42:43;;;;;;;3.90;2.60;;;;;;;;;;5096451;28;20392;-82
2024/03/26 09:45:13;;;;;;;3.13;2.40;;;;;;;;;;5096337;28;20428;-82
2024/03/26 09:47:39;;;;;;;3.03;2.25;;;;;;;;;;5096304;28;20377;-82
2024/03/26 09:50:05;;;;;;;2.85;2.50;;;;;;;;;;5096575;28;20381;-82
2024/03/26 09:52:34;;;;;;;3.17;2.45;;;;;;;;;;5096625;28;20389;-82
2024/03/26 09:55:00;;;;;;;4.20;2.22;;;;;;;;;;5096023;28;20409;-82
2024/03/26 09:57:27;;;;;;;2.40;2.20;;;;;;;;;;5095750;28;20455;-82
2024/03/26 09:59:53;;;;;;;2.88;2.30;;;;;;;;;;5096043;28;20398;-82
2024/03/26 10:02:20;;;;;;;3.17;2.67;;;;;;;;;;5096169;28;20440;-82
2024/03/26 10:04:47;;;;;;;3.93;2.73;;;;;;;;;;5095201;28;20480;-82
2024/03/26 10:07:13;;;;;;;4.75;2.50;;;;;;;;;;5095427;28;20450;-82
2024/03/26 10:09:39;;;;;;;2.92;2.50;;;;;;;;;;5095661;28;20413;-82
2024/03/26 10:12:05;;;;;;;4.00;2.40;;;;;;;;;;5095816;28;20371;-82
2024/03/26 10:14:31;;;;;;;4.68;2.67;;;;;;;;;;5095987;28;20436;-82
2024/03/26 10:16:59;;;;;;;3.83;2.30;;;;;;;;;;5097322;28;20369;-82
2024/03/26 10:19:25;;;;;;;3.92;2.33;;;;;;;;;;5099245;28;20406;-82
2024/03/26 10:21:52;;;;;;;2.42;2.00;;;;;;;;;;5099528;28;20386;-82
2024/03/26 10:24:18;;;;;;;2.63;2.10;;;;;;;;;;5099460;28;20370;-82
2024/03/26 10:26:44;;;;;;;3.55;2.10;;;;;;;;;;5099046;28;20384;-82
2024/03/26 10:29:10;;;;;;;2.50;2.10;;;;;;;;;;5099159;28;20374;-82
2024/03/26 10:31:38;;;;;;;4.32;2.53;;;;;;;;;;5099584;28;20443;-82
2024/03/26 10:34:04;;;;;;;3.33;1.77;;;;;;;;;;5099432;28;20390;-81
2024/03/26 10:36:33;;;;;;;2.70;1.65;;;;;;;;;;5081762;28;20385;-82
2024/03/26 10:39:00;;;;;;;6.07;1.70;;;;;;;;;;5099902;28;20497;-82
2024/03/26 10:41:34;;;;;;;4.82;1.90;;;;;;;;;;5100102;28;20469;-82
2024/03/26 10:44:00;;;;;;;2.55;1.88;;;;;;;;;;5099709;28;20405;-82
2024/03/26 10:46:28;;;;;;;3.40;1.70;;;;;;;;;;5099875;28;20481;-81
2024/03/26 10:48:54;;;;;;;4.13;2.10;;;;;;;;;;5100186;28;20455;-82
2024/03/26 10:51:20;;;;;;;3.50;1.67;;;;;;;;;;5099263;28;20377;-82
2024/03/26 10:53:47;;;;;;;4.80;1.60;;;;;;;;;;5098786;28;20378;-82
2024/03/26 10:56:13;;;;;;;3.35;1.50;;;;;;;;;;5099702;28;20803;-82
2024/03/26 10:58:39;;;;;;;3.63;1.67;;;;;;;;;;5098915;28;20418;-81
2024/03/26 11:01:06;;;;;;;3.58;1.70;;;;;;;;;;5098861;28;20370;-81
2024/03/26 11:03:33;;;;;;;3.80;1.27;;;;;;;;;;5098091;28;20371;-81
2024/03/26 11:06:00;;;;;;;3.05;1.58;;;;;;;;;;5099060;28;20431;-81
2024/03/26 11:08:27;;;;;;;3.38;1.50;;;;;;;;;;5098954;28;20393;-81
2024/03/26 11:10:56;;;;;;;3.53;1.48;;;;;;;;;;5098843;28;20870;-81
2024/03/26 11:13:28;;;;;;;2.55;1.63;;;;;;;;;;5097256;28;20370;-81
2024/03/26 11:15:54;;;;;;;3.22;1.50;;;;;;;;;;5099103;28;20382;-81
2024/03/26 11:18:35;;;;;;;1.67;1.42;;;;;;;;;;5098929;28;20431;-81
2024/03/26 11:21:08;;;;;;;3.00;1.30;;;;;;;;;;5098622;28;20916;-81
2024/03/26 11:23:38;;;;;;;4.60;1.77;;;;;;;;;;5097783;28;20374;-82
2024/03/26 11:26:04;;;;;;;5.38;1.55;;;;;;;;;;5097731;28;20392;-81
2024/03/26 11:28:34;;;;;;;5.27;1.50;;;;;;;;;;5096585;28;20984;-82
2024/03/26 11:31:01;;;;;;;2.88;1.58;;;;;;;;;;5098175;28;20472;-81
2024/03/26 11:33:32;;;;;;;4.60;1.52;;;;;;;;;;5098815;28;20450;-82
2024/03/26 11:35:58;;;;;;;2.40;1.50;;;;;;;;;;5098843;28;20761;-82
2024/03/26 11:38:25;;;;;;;4.93;1.40;;;;;;;;;;5097905;28;20774;-82
2024/03/26 11:40:51;;;;;;;1.90;1.30;;;;;;;;;;5098574;28;20416;-82
2024/03/26 11:43:18;;;;;;;3.90;1.83;;;;;;;;;;5098540;28;20407;-81
2024/03/26 11:45:44;;;;;;;2.65;1.67;;;;;;;;;;5097481;28;20378;-82
2024/03/26 11:48:13;;;;;;;3.73;1.80;;;;;;;;;;5098627;28;20378;-82
2024/03/26 11:50:39;;;;;;;1.90;1.30;;;;;;;;;;5098896;28;20381;-82
2024/03/26 11:53:05;;;;;;;3.97;1.57;;;;;;;;;;5098861;28;20469;-81
2024/03/26 11:55:31;;;;;;;3.55;1.35;;;;;;;;;;5098184;28;20394;-82
2024/03/26 11:57:58;;;;;;;3.88;1.50;;;;;;;;;;5098097;28;20455;-82
2024/03/26 12:00:26;;;;;;;3.55;1.42;;;;;;;;;;5098397;28;20426;-82
2024/03/26 12:02:52;;;;;;;3.72;1.30;;;;;;;;;;5097930;28;20378;-82
2024/03/26 12:05:18;;;;;;;2.15;1.40;;;;;;;;;;5098287;28;20912;-82
2024/03/26 12:07:44;;;;;;;4.07;1.50;;;;;;;;;;5097889;28;20382;-82
2024/03/26 12:10:13;;;;;;;2.88;1.38;;;;;;;;;;5098237;28;20732;-82
2024/03/26 12:12:39;;;;;;;3.58;1.38;;;;;;;;;;5098316;28;20367;-82
2024/03/26 12:15:05;;;;;;;5.50;1.37;;;;;;;;;;5097995;28;20866;-82
2024/03/26 12:17:32;;;;;;;3.55;1.48;;;;;;;;;;5097974;28;20382;-82
2024/03/26 12:19:58;;;;;;;3.25;1.30;;;;;;;;;;5097371;28;20475;-82
2024/03/26 12:22:24;;;;;;;2.42;1.15;;;;;;;;;;5097715;28;20378;-81
2024/03/26 12:24:50;;;;;;;3.47;1.20;;;;;;;;;;5098235;28;20370;-82
2024/03/26 12:27:16;;;;;;;2.17;1.25;;;;;;;;;;5097539;28;20401;-82
2024/03/26 12:29:44;;;;;;;3.80;1.30;;;;;;;;;;5076958;28;20822;-81
2024/03/26 12:32:10;;;;;;;4.63;1.10;;;;;;;;;;5097156;28;20475;-82
2024/03/26 12:34:36;;;;;;;2.50;1.03;;;;;;;;;;5096351;28;20779;-82
2024/03/26 12:37:02;;;;;;;4.78;1.40;;;;;;;;;;5096356;28;20466;-82
2024/03/26 12:39:31;;;;;;;2.03;1.10;;;;;;;;;;5096148;28;20863;-81
2024/03/26 12:41:57;;;;;;;2.33;1.20;;;;;;;;;;5095980;28;20370;-82
2024/03/26 12:44:25;;;;;;;3.83;1.15;;;;;;;;;;5095929;28;20382;-81
2024/03/26 12:46:51;;;;;;;6.45;1.35;;;;;;;;;;5096314;28;20378;-81
2024/03/26 12:49:18;;;;;;;4.13;1.50;;;;;;;;;;5096098;28;20412;-81
2024/03/26 12:51:45;;;;;;;4.00;1.35;;;;;;;;;;5096756;28;20463;-81
2024/03/26 12:54:11;;;;;;;3.33;1.10;;;;;;;;;;5095957;28;20390;-81
2024/03/26 12:56:37;;;;;;;3.60;1.20;;;;;;;;;;5096247;28;20398;-81
2024/03/26 12:59:04;;;;;;;3.92;1.40;;;;;;;;;;5096140;28;20992;-81
2024/03/26 13:01:31;;;;;;;3.45;1.05;;;;;;;;;;5096351;28;20526;-81
2024/03/26 13:03:57;;;;;;;3.67;1.20;;;;;;;;;;5095613;28;20377;-81
2024/03/26 13:06:23;;;;;;;2.30;1.38;;;;;;;;;;5096029;28;20371;-81
2024/03/26 13:08:49;;;;;;;4.28;1.40;;;;;;;;;;5095696;28;20879;-81
2024/03/26 13:11:16;;;;;;;3.95;1.30;;;;;;;;;;5096059;28;20465;-81
2024/03/26 13:13:44;;;;;;;4.47;1.20;;;;;;;;;;5096287;28;20473;-81
2024/03/26 13:16:10;;;;;;;5.35;1.20;;;;;;;;;;5096378;28;20386;-82
2024/03/26 13:18:36;;;;;;;4.95;1.52;;;;;;;;;;5096478;28;20496;-83
2024/03/26 13:21:02;;;;;;;4.22;1.33;;;;;;;;;;5096315;28;20382;-81
2024/03/26 13:23:28;;;;;;;4.95;1.50;;;;;;;;;;5096545;28;20480;-81
2024/03/26 13:25:54;;;;;;;3.87;1.10;;;;;;;;;;5096407;28;20417;-82
2024/03/26 13:28:20;;;;;;;5.00;1.20;;;;;;;;;;5097064;28;20385;-81
2024/03/26 13:30:47;;;;;;;4.35;1.40;;;;;;;;;;5096712;28;20382;-81
2024/03/26 13:33:13;;;;;;;3.03;1.20;;;;;;;;;;5096218;28;20981;-81
2024/03/26 13:35:40;;;;;;;3.80;1.37;;;;;;;;;;5097041;28;20454;-81
2024/03/26 13:38:09;;;;;;;2.92;1.30;;;;;;;;;;5096774;28;20416;-82
2024/03/26 13:40:35;;;;;;;4.20;1.35;;;;;;;;;;5097178;28;20370;-82
2024/03/26 13:43:01;;;;;;;5.03;1.20;;;;;;;;;;5096829;28;20465;-82
2024/03/26 13:45:27;;;;;;;2.38;1.17;;;;;;;;;;5097136;28;20406;-82
2024/03/26 13:47:53;;;;;;;2.65;1.10;;;;;;;;;;5097200;28;20374;-82
2024/03/26 13:50:20;;;;;;;4.18;1.25;;;;;;;;;;5097027;28;20374;-82
2024/03/26 13:52:46;;;;;;;4.17;1.40;;;;;;;;;;5096262;28;20398;-82
2024/03/26 13:55:12;;;;;;;3.70;1.20;;;;;;;;;;5097314;28;20712;-82
2024/03/26 13:57:38;;;;;;;3.58;1.20;;;;;;;;;;5096727;28;20389;-82
2024/03/26 14:00:07;;;;;;;4.50;1.35;;;;;;;;;;5096343;28;20413;-82
2024/03/26 14:02:33;;;;;;;2.83;0.90;;;;;;;;;;5096243;28;20396;-82
2024/03/26 14:04:59;;;;;;;4.05;0.98;;;;;;;;;;5096310;28;20404;-82
2024/03/26 14:07:25;;;;;;;3.47;1.30;;;;;;;;;;5096151;28;20378;-83
2024/03/26 14:09:51;;;;;;;4.10;1.15;;;;;;;;;;5096301;28;20848;-83
2024/03/26 14:12:17;;;;;;;4.10;1.02;;;;;;;;;;5078007;28;20519;-83
2024/03/26 14:14:43;;;;;;;2.87;1.13;;;;;;;;;;5096378;28;20393;-83
2024/03/26 14:17:09;;;;;;;2.97;1.08;;;;;;;;;;5096449;28;20382;-84
2024/03/26 14:19:35;;;;;;;5.18;1.10;;;;;;;;;;5096137;28;20441;-83
2024/03/26 14:22:01;;;;;;;2.58;1.10;;;;;;;;;;5096644;28;20377;-83
2024/03/26 14:24:27;;;;;;;3.72;1.10;;;;;;;;;;5078230;28;20709;-83
2024/03/26 14:26:53;;;;;;;4.07;1.30;;;;;;;;;;5095258;28;20489;-82
2024/03/26 14:29:23;;;;;;;3.60;1.15;;;;;;;;;;5095766;28;20378;-82
2024/03/26 14:31:50;;;;;;;6.03;1.17;;;;;;;;;;5095615;28;20398;-82
2024/03/26 14:34:16;;;;;;;3.47;1.33;;;;;;;;;;5095060;28;20744;-82
2024/03/26 14:36:42;;;;;;;3.63;1.00;;;;;;;;;;5095252;28;20404;-82